Terminal Aerodrome Forecast
Issued by NWS Buffalo, NY

Home | Current Version | Previous Version | Text Only | Print | Product List | Glossary On
Versions: 1 2 3 4 5 6 7 8 9 10 11 12 13 14 15 16 17 18 19 20 21 22 23 24 25 26 27 28 29
000
FTUS41 KBUF 201100
TAFROC
TAF
KROC 201135Z 2012/2112 21010KT P6SM FEW050 BKN250
     FM201430 21015G25KT P6SM FEW130 SCT200
     FM210000 19010G20KT P6SM SCT045
     FM210400 19012KT P6SM SCT025 BKN045
     FM210800 20012KT P6SM VCSH SCT025 BKN040
     FM211100 20010KT 6SM -SHRA SCT025 OVC035=

USA.gov is the U.S. government's official web portal to all federal, state and local government web resources and services.